Time;durP1;ratioP1;P1;durP2;ratioP2;P2;SDS_P1;SDS_P2;PMS_P1;PMS_P2;Temp;Humidity;BMP_temperature;BMP_pressure;BME280_temperature;BME280_humidity;BME280_pressure;Samples;Min_cycle;Max_cycle;Signal;HPM_P1;HPM_P2
2020/08/26 00:02:30;;;;;;;2.13;1.41;;;;;;;22.32;64.04;99541.31;;;;-47
2020/08/26 00:05:30;;;;;;;1.43;1.26;;;;;;;22.32;64.11;99537.32;;;;-46
2020/08/26 00:08:30;;;;;;;1.96;1.34;;;;;;;22.32;64.09;99541.80;;;;-46
2020/08/26 00:11:30;;;;;;;2.21;1.41;;;;;;;22.32;64.06;99539.59;;;;-59
2020/08/26 00:14:30;;;;;;;1.81;1.31;;;;;;;22.31;64.09;99540.19;;;;-58
2020/08/26 00:17:30;;;;;;;2.65;1.35;;;;;;;22.31;64.10;99538.55;;;;-59
2020/08/26 00:20:30;;;;;;;1.46;1.35;;;;;;;22.30;64.13;99531.77;;;;-51
2020/08/26 00:23:30;;;;;;;2.61;1.37;;;;;;;22.30;64.16;99530.80;;;;-51
2020/08/26 00:26:30;;;;;;;1.35;1.25;;;;;;;22.30;64.10;99529.76;;;;-51
2020/08/26 00:29:30;;;;;;;1.75;1.40;;;;;;;22.29;64.17;99530.67;;;;-46
2020/08/26 00:32:30;;;;;;;1.33;1.23;;;;;;;22.29;64.17;99528.55;;;;-51
2020/08/26 00:35:30;;;;;;;1.75;1.29;;;;;;;22.29;64.15;99529.80;;;;-51
2020/08/26 00:38:30;;;;;;;1.80;1.21;;;;;;;22.29;64.10;99532.64;;;;-46
2020/08/26 00:41:30;;;;;;;1.42;1.28;;;;;;;22.28;64.11;99535.73;;;;-51
2020/08/26 00:44:30;;;;;;;1.63;1.33;;;;;;;22.29;64.15;99537.70;;;;-50
2020/08/26 00:47:30;;;;;;;1.67;1.30;;;;;;;22.29;64.19;99536.56;;;;-50
2020/08/26 00:50:30;;;;;;;1.29;1.19;;;;;;;22.28;64.11;99531.34;;;;-51
2020/08/26 00:53:30;;;;;;;1.68;1.36;;;;;;;22.28;64.18;99537.29;;;;-46
2020/08/26 00:56:47;;;;;;;1.30;1.20;;;;;;;22.28;64.13;99537.05;;;;-58
2020/08/26 00:59:30;;;;;;;1.30;1.20;;;;;;;22.27;64.24;99544.58;;;;-58
2020/08/26 01:02:30;;;;;;;1.46;1.20;;;;;;;22.28;64.22;99547.59;;;;-46
2020/08/26 01:05:30;;;;;;;1.69;1.21;;;;;;;22.27;64.16;99553.00;;;;-46
2020/08/26 01:08:30;;;;;;;1.95;1.28;;;;;;;22.27;64.25;99551.55;;;;-46
2020/08/26 01:11:30;;;;;;;1.62;1.20;;;;;;;22.27;64.24;99553.33;;;;-51
2020/08/26 01:14:30;;;;;;;1.53;1.39;;;;;;;22.27;64.22;99551.44;;;;-51
2020/08/26 01:17:30;;;;;;;1.21;1.16;;;;;;;22.27;64.25;99555.52;;;;-51
2020/08/26 01:20:30;;;;;;;2.36;1.30;;;;;;;22.26;64.32;99556.59;;;;-51
2020/08/26 01:23:30;;;;;;;1.39;1.29;;;;;;;22.26;64.33;99554.05;;;;-50
2020/08/26 01:26:30;;;;;;;1.30;1.20;;;;;;;22.26;64.32;99564.28;;;;-51
2020/08/26 01:29:30;;;;;;;1.26;1.15;;;;;;;22.26;64.26;99566.31;;;;-51
2020/08/26 01:32:30;;;;;;;1.23;1.13;;;;;;;22.26;64.28;99563.45;;;;-59
2020/08/26 01:35:30;;;;;;;1.31;1.21;;;;;;;22.26;64.31;99568.92;;;;-59
2020/08/26 01:38:30;;;;;;;1.60;1.39;;;;;;;22.25;64.29;99570.03;;;;-59
2020/08/26 01:41:30;;;;;;;1.38;1.28;;;;;;;22.25;64.30;99571.48;;;;-51
2020/08/26 01:44:30;;;;;;;1.69;1.23;;;;;;;22.25;64.34;99571.16;;;;-50
2020/08/26 01:47:30;;;;;;;1.35;1.20;;;;;;;22.25;64.36;99574.33;;;;-50
2020/08/26 01:50:30;;;;;;;1.25;1.15;;;;;;;22.25;64.39;99580.13;;;;-46
2020/08/26 01:53:30;;;;;;;1.45;1.23;;;;;;;22.25;64.36;99585.19;;;;-46
2020/08/26 01:56:30;;;;;;;1.41;1.30;;;;;;;22.26;64.27;99579.47;;;;-51
2020/08/26 01:59:30;;;;;;;1.51;1.25;;;;;;;22.25;64.34;99576.39;;;;-51
2020/08/26 02:02:30;;;;;;;1.73;1.20;;;;;;;22.24;64.35;99582.82;;;;-59
2020/08/26 02:05:30;;;;;;;1.54;1.30;;;;;;;22.24;64.37;99586.03;;;;-59
2020/08/26 02:08:30;;;;;;;1.32;1.22;;;;;;;22.24;64.42;99589.53;;;;-46
2020/08/26 02:11:30;;;;;;;1.26;1.16;;;;;;;22.24;64.38;99592.31;;;;-46
2020/08/26 02:14:30;;;;;;;1.95;1.20;;;;;;;22.24;64.39;99602.84;;;;-46
2020/08/26 02:17:30;;;;;;;1.95;1.19;;;;;;;22.23;64.37;99604.73;;;;-46
2020/08/26 02:20:30;;;;;;;1.33;1.23;;;;;;;22.24;64.45;99608.21;;;;-51
2020/08/26 02:23:30;;;;;;;1.20;1.10;;;;;;;22.23;64.43;99612.66;;;;-46
2020/08/26 02:26:30;;;;;;;1.32;1.20;;;;;;;22.23;64.50;99614.27;;;;-46
2020/08/26 02:29:30;;;;;;;1.27;1.18;;;;;;;22.24;64.45;99622.43;;;;-46
2020/08/26 02:32:30;;;;;;;1.43;1.21;;;;;;;22.23;64.43;99620.89;;;;-46
2020/08/26 02:35:30;;;;;;;1.29;1.19;;;;;;;22.23;64.38;99620.08;;;;-46
2020/08/26 02:38:30;;;;;;;1.19;1.15;;;;;;;22.23;64.42;99624.39;;;;-59
2020/08/26 02:41:30;;;;;;;1.25;1.16;;;;;;;22.23;64.45;99636.07;;;;-46
2020/08/26 02:44:29;;;;;;;1.29;1.19;;;;;;;22.23;64.45;99652.23;;;;-46
2020/08/26 02:47:30;;;;;;;1.08;1.08;;;;;;;22.22;64.47;99642.08;;;;-50
2020/08/26 02:50:30;;;;;;;1.34;1.17;;;;;;;22.22;64.37;99644.53;;;;-59
2020/08/26 02:53:30;;;;;;;1.69;1.21;;;;;;;22.23;64.45;99646.34;;;;-59
2020/08/26 02:56:29;;;;;;;1.29;1.19;;;;;;;22.22;64.38;99651.22;;;;-51
2020/08/26 02:59:29;;;;;;;1.29;1.19;;;;;;;22.23;64.43;99657.05;;;;-50
2020/08/26 03:02:30;;;;;;;1.17;1.15;;;;;;;22.22;64.44;99661.27;;;;-46
2020/08/26 03:05:30;;;;;;;1.33;1.23;;;;;;;22.22;64.46;99673.20;;;;-59
2020/08/26 03:08:30;;;;;;;1.13;1.10;;;;;;;22.22;64.45;99678.91;;;;-51
2020/08/26 03:11:30;;;;;;;1.35;1.25;;;;;;;22.22;64.42;99677.12;;;;-59
2020/08/26 03:14:30;;;;;;;2.04;1.09;;;;;;;22.22;64.43;99686.27;;;;-51
2020/08/26 03:17:30;;;;;;;1.29;1.20;;;;;;;22.22;64.44;99696.95;;;;-51
2020/08/26 03:20:30;;;;;;;1.40;1.30;;;;;;;22.22;64.46;99704.05;;;;-51
2020/08/26 03:23:30;;;;;;;1.27;1.17;;;;;;;22.21;64.51;99696.07;;;;-51
2020/08/26 03:26:30;;;;;;;1.27;1.15;;;;;;;22.21;64.47;99711.58;;;;-46
2020/08/26 03:29:30;;;;;;;1.16;1.11;;;;;;;22.21;64.52;99704.80;;;;-59
2020/08/26 03:32:30;;;;;;;1.39;1.20;;;;;;;22.21;64.46;99715.25;;;;-60
2020/08/26 03:35:30;;;;;;;1.30;1.20;;;;;;;22.20;64.48;99722.04;;;;-59
2020/08/26 03:38:30;;;;;;;1.30;1.20;;;;;;;22.20;64.46;99718.84;;;;-58
2020/08/26 03:41:29;;;;;;;1.20;1.10;;;;;;;22.20;64.42;99732.22;;;;-51
2020/08/26 03:44:30;;;;;;;1.12;1.02;;;;;;;22.21;64.54;99728.06;;;;-60
2020/08/26 03:47:30;;;;;;;1.22;1.15;;;;;;;22.20;64.46;99732.96;;;;-59
2020/08/26 03:50:30;;;;;;;1.20;1.10;;;;;;;22.20;64.47;99736.41;;;;-59
2020/08/26 03:53:30;;;;;;;1.26;1.16;;;;;;;22.20;64.48;99745.28;;;;-46
2020/08/26 03:56:30;;;;;;;1.25;1.15;;;;;;;22.20;64.52;99737.71;;;;-59
2020/08/26 03:59:30;;;;;;;1.12;1.10;;;;;;;22.20;64.53;99752.13;;;;-46
2020/08/26 04:02:30;;;;;;;1.08;1.08;;;;;;;22.20;64.47;99749.61;;;;-51
2020/08/26 04:05:31;;;;;;;1.07;1.06;;;;;;;22.20;64.49;99754.09;;;;-59
2020/08/26 04:08:45;;;;;;;1.34;1.24;;;;;;;22.20;64.52;99768.55;;;;-50
2020/08/26 04:11:30;;;;;;;1.30;1.20;;;;;;;22.20;64.45;99769.38;;;;-51
2020/08/26 04:14:30;;;;;;;1.53;1.10;;;;;;;22.20;64.49;99776.29;;;;-59
2020/08/26 04:17:30;;;;;;;1.11;1.10;;;;;;;22.20;64.44;99780.70;;;;-51
2020/08/26 04:20:30;;;;;;;1.55;1.20;;;;;;;22.20;64.47;99790.34;;;;-51
2020/08/26 04:23:30;;;;;;;1.15;1.09;;;;;;;22.19;64.53;99792.55;;;;-46
2020/08/26 04:26:30;;;;;;;1.73;1.09;;;;;;;22.20;64.50;99794.33;;;;-60
2020/08/26 04:29:30;;;;;;;1.65;1.15;;;;;;;22.20;64.47;99798.42;;;;-46
2020/08/26 04:32:30;;;;;;;1.35;1.19;;;;;;;22.20;64.48;99802.59;;;;-59
2020/08/26 04:36:13;;;;;;;1.30;1.13;;;;;;;22.20;64.45;99802.08;;;;-51
2020/08/26 04:39:30;;;;;;;1.27;1.17;;;;;;;22.19;64.55;99801.13;;;;-46
2020/08/26 04:42:29;;;;;;;1.29;1.18;;;;;;;22.19;64.53;99802.77;;;;-59
2020/08/26 04:45:30;;;;;;;1.20;1.09;;;;;;;22.19;64.51;99815.50;;;;-60
2020/08/26 04:48:54;;;;;;;1.15;1.10;;;;;;;22.19;64.46;99820.32;;;;-46
2020/08/26 04:54:30;;;;;;;1.33;1.23;;;;;;;22.20;64.53;99823.55;;;;-60
2020/08/26 04:58:30;;;;;;;1.47;1.20;;;;;;;22.19;64.45;99823.34;;;;-59
2020/08/26 05:01:30;;;;;;;1.11;1.01;;;;;;;22.19;64.50;99827.50;;;;-46
2020/08/26 05:04:30;;;;;;;1.20;1.10;;;;;;;22.19;64.48;99831.09;;;;-59
2020/08/26 05:07:30;;;;;;;1.19;1.11;;;;;;;22.19;64.51;99830.11;;;;-51
2020/08/26 05:10:30;;;;;;;1.12;1.09;;;;;;;22.18;64.50;99851.89;;;;-51
2020/08/26 05:13:30;;;;;;;1.17;1.10;;;;;;;22.18;64.56;99840.63;;;;-46
2020/08/26 05:16:30;;;;;;;1.02;1.02;;;;;;;22.18;64.49;99847.66;;;;-46
2020/08/26 05:19:30;;;;;;;1.20;1.15;;;;;;;22.19;64.53;99856.06;;;;-51
2020/08/26 05:23:30;;;;;;;6.93;1.43;;;;;;;22.17;63.89;99863.91;;;;-61
2020/08/26 05:26:30;;;;;;;3.32;1.49;;;;;;;22.17;63.39;99863.86;;;;-52
2020/08/26 05:29:30;;;;;;;3.34;1.50;;;;;;;22.17;63.09;99877.56;;;;-50
2020/08/26 05:32:30;;;;;;;3.79;1.56;;;;;;;22.16;62.94;99883.10;;;;-48
2020/08/26 05:35:30;;;;;;;3.43;1.75;;;;;;;22.17;62.31;99889.95;;;;-57
2020/08/26 05:38:30;;;;;;;4.71;1.61;;;;;;;22.15;61.95;99900.28;;;;-55
2020/08/26 05:41:30;;;;;;;2.92;1.49;;;;;;;22.14;62.07;99901.02;;;;-54
2020/08/26 05:45:30;;;;;;;4.03;1.65;;;;;;;22.15;61.77;99905.89;;;;-57
2020/08/26 05:48:30;;;;;;;3.26;1.41;;;;;;;22.17;62.30;99913.30;;;;-49
2020/08/26 05:51:30;;;;;;;4.19;1.53;;;;;;;22.17;62.30;99911.34;;;;-51
2020/08/26 05:54:30;;;;;;;4.39;1.67;;;;;;;22.18;62.43;99918.34;;;;-51
2020/08/26 05:57:30;;;;;;;4.27;1.55;;;;;;;22.18;62.51;99909.93;;;;-56
2020/08/26 06:00:30;;;;;;;3.74;1.53;;;;;;;22.18;62.63;99917.84;;;;-56
2020/08/26 06:03:29;;;;;;;2.34;1.37;;;;;;;22.18;62.70;99916.71;;;;-56
2020/08/26 06:06:30;;;;;;;3.15;1.55;;;;;;;22.18;62.72;99923.73;;;;-60
2020/08/26 06:09:30;;;;;;;3.54;1.59;;;;;;;22.18;62.86;99924.30;;;;-61
2020/08/26 06:12:30;;;;;;;3.35;1.47;;;;;;;22.18;62.96;99920.61;;;;-51
2020/08/26 06:15:30;;;;;;;1.58;1.41;;;;;;;22.18;63.02;99933.67;;;;-51
2020/08/26 06:18:30;;;;;;;2.49;1.51;;;;;;;22.18;63.14;99936.14;;;;-50
2020/08/26 06:21:29;;;;;;;1.84;1.40;;;;;;;22.18;63.15;99936.61;;;;-49
2020/08/26 06:24:30;;;;;;;2.46;1.52;;;;;;;22.18;63.18;99936.95;;;;-51
2020/08/26 06:27:30;;;;;;;2.27;1.25;;;;;;;22.18;63.24;99966.41;;;;-49
2020/08/26 06:30:30;;;;;;;2.61;1.46;;;;;;;22.18;63.34;99962.74;;;;-49
2020/08/26 06:33:30;;;;;;;2.96;1.45;;;;;;;22.18;63.38;99967.15;;;;-49
2020/08/26 06:36:30;;;;;;;2.23;1.40;;;;;;;22.16;63.47;99966.94;;;;-49
2020/08/26 06:39:30;;;;;;;2.70;1.36;;;;;;;22.17;63.51;99968.80;;;;-49
2020/08/26 06:42:29;;;;;;;3.09;1.36;;;;;;;22.17;63.48;99974.03;;;;-50
2020/08/26 06:45:30;;;;;;;2.66;1.30;;;;;;;22.17;63.60;99974.36;;;;-49
2020/08/26 06:48:30;;;;;;;1.73;1.34;;;;;;;22.16;63.69;99985.55;;;;-49
2020/08/26 06:51:30;;;;;;;2.32;1.45;;;;;;;22.16;63.60;99987.23;;;;-49
2020/08/26 06:54:30;;;;;;;2.35;1.43;;;;;;;22.16;63.62;99991.41;;;;-51
2020/08/26 06:57:30;;;;;;;2.59;1.35;;;;;;;22.16;63.72;99996.72;;;;-52
2020/08/26 07:00:30;;;;;;;1.89;1.41;;;;;;;22.15;63.76;99999.09;;;;-50
2020/08/26 07:03:30;;;;;;;1.78;1.25;;;;;;;22.15;63.71;99989.06;;;;-49
2020/08/26 07:06:30;;;;;;;1.99;1.41;;;;;;;22.15;63.82;100005.71;;;;-51
2020/08/26 07:09:30;;;;;;;1.38;1.23;;;;;;;22.15;63.80;100008.48;;;;-49
2020/08/26 07:12:30;;;;;;;1.92;1.25;;;;;;;22.15;63.73;100005.71;;;;-56
2020/08/26 07:15:30;;;;;;;1.49;1.31;;;;;;;22.15;63.78;100014.03;;;;-56
2020/08/26 07:18:30;;;;;;;3.29;1.32;;;;;;;22.15;63.83;100005.71;;;;-60
2020/08/26 07:21:30;;;;;;;2.29;1.40;;;;;;;22.15;63.89;100023.09;;;;-60
2020/08/26 07:24:30;;;;;;;1.39;1.25;;;;;;;22.15;63.90;100031.02;;;;-60
2020/08/26 07:27:30;;;;;;;1.79;1.40;;;;;;;22.15;63.84;100043.02;;;;-60
2020/08/26 07:30:30;;;;;;;1.88;1.40;;;;;;;22.16;63.86;100047.72;;;;-60
2020/08/26 07:33:30;;;;;;;1.87;1.25;;;;;;;22.16;63.90;100054.74;;;;-60
2020/08/26 07:36:30;;;;;;;1.80;1.25;;;;;;;22.15;63.86;100061.30;;;;-61
2020/08/26 07:39:30;;;;;;;1.60;1.24;;;;;;;22.15;63.93;100057.13;;;;-49
2020/08/26 07:42:30;;;;;;;1.62;1.36;;;;;;;22.16;63.93;100070.41;;;;-50
2020/08/26 07:45:30;;;;;;;1.67;1.31;;;;;;;22.15;63.95;100062.35;;;;-61
2020/08/26 07:48:30;;;;;;;2.35;1.39;;;;;;;22.16;63.99;100071.48;;;;-56
2020/08/26 07:51:30;;;;;;;2.03;1.28;;;;;;;22.15;63.93;100065.70;;;;-56
2020/08/26 07:54:30;;;;;;;1.53;1.30;;;;;;;22.15;63.92;100066.76;;;;-56
2020/08/26 07:57:30;;;;;;;3.69;1.37;;;;;;;22.16;64.00;100067.00;;;;-53
2020/08/26 08:00:30;;;;;;;1.36;1.26;;;;;;;22.18;64.21;100072.60;;;;-51
2020/08/26 08:03:30;;;;;;;1.47;1.30;;;;;;;22.19;64.32;100070.80;;;;-53
2020/08/26 08:06:30;;;;;;;1.85;1.35;;;;;;;22.21;64.32;100073.05;;;;-51
2020/08/26 08:09:30;;;;;;;1.70;1.30;;;;;;;22.23;64.42;100071.74;;;;-53
2020/08/26 08:12:30;;;;;;;1.64;1.25;;;;;;;22.25;64.55;100082.69;;;;-48
2020/08/26 08:15:30;;;;;;;1.36;1.26;;;;;;;22.28;64.49;100090.73;;;;-46
2020/08/26 08:18:29;;;;;;;1.71;1.30;;;;;;;22.29;64.52;100089.66;;;;-53
2020/08/26 08:21:30;;;;;;;2.83;1.33;;;;;;;22.30;64.53;100092.91;;;;-51
2020/08/26 08:24:30;;;;;;;1.78;1.30;;;;;;;22.32;64.57;100082.68;;;;-51
2020/08/26 08:27:30;;;;;;;2.67;1.23;;;;;;;22.33;64.58;100095.00;;;;-51
2020/08/26 08:30:30;;;;;;;2.84;1.29;;;;;;;22.34;64.55;100086.40;;;;-45
2020/08/26 08:33:30;;;;;;;2.91;1.50;;;;;;;22.36;64.56;100091.92;;;;-47
2020/08/26 08:36:30;;;;;;;3.03;1.30;;;;;;;22.37;64.53;100089.97;;;;-51
2020/08/26 08:39:30;;;;;;;3.42;1.42;;;;;;;22.40;64.70;100096.80;;;;-54
2020/08/26 08:42:30;;;;;;;3.69;1.48;;;;;;;22.40;64.74;100089.77;;;;-57
2020/08/26 08:45:30;;;;;;;2.85;1.39;;;;;;;22.42;64.78;100118.66;;;;-51
2020/08/26 08:48:30;;;;;;;5.12;1.51;;;;;;;22.43;64.68;100101.56;;;;-48
2020/08/26 08:51:30;;;;;;;3.12;1.52;;;;;;;22.44;64.66;100107.11;;;;-53
2020/08/26 08:54:30;;;;;;;4.53;1.40;;;;;;;22.45;64.62;100113.21;;;;-49
2020/08/26 08:57:30;;;;;;;3.35;1.36;;;;;;;22.47;64.66;100107.72;;;;-52
2020/08/26 09:00:30;;;;;;;2.37;1.41;;;;;;;22.48;64.65;100114.34;;;;-56
2020/08/26 09:03:30;;;;;;;3.98;1.45;;;;;;;22.47;64.74;100114.27;;;;-53
2020/08/26 09:06:30;;;;;;;3.67;1.50;;;;;;;22.48;64.80;100115.49;;;;-52
2020/08/26 09:09:30;;;;;;;4.99;1.47;;;;;;;22.48;64.81;100109.67;;;;-49
2020/08/26 09:12:30;;;;;;;3.97;1.38;;;;;;;22.50;64.79;100115.14;;;;-49
2020/08/26 09:15:29;;;;;;;3.19;1.39;;;;;;;22.50;64.83;100122.64;;;;-52
2020/08/26 09:18:30;;;;;;;9.39;1.61;;;;;;;22.50;64.78;100128.45;;;;-48
2020/08/26 09:21:30;;;;;;;14.09;1.91;;;;;;;22.52;64.78;100128.11;;;;-51
2020/08/26 09:24:30;;;;;;;15.05;2.05;;;;;;;22.53;64.80;100129.78;;;;-51
2020/08/26 09:27:30;;;;;;;7.09;1.83;;;;;;;22.55;64.67;100128.05;;;;-56
2020/08/26 09:30:30;;;;;;;8.66;1.69;;;;;;;22.56;64.33;100138.65;;;;-56
2020/08/26 09:33:30;;;;;;;7.99;1.61;;;;;;;22.55;64.74;100130.50;;;;-49
2020/08/26 09:36:30;;;;;;;7.08;1.59;;;;;;;22.57;64.56;100143.21;;;;-46
2020/08/26 09:39:30;;;;;;;6.35;1.50;;;;;;;22.58;64.51;100134.23;;;;-52
2020/08/26 09:42:30;;;;;;;9.85;1.78;;;;;;;22.60;64.30;100125.63;;;;-56
2020/08/26 09:45:30;;;;;;;5.15;1.67;;;;;;;22.61;64.37;100127.50;;;;-44
2020/08/26 09:48:30;;;;;;;8.67;1.61;;;;;;;22.62;64.50;100128.06;;;;-50
2020/08/26 09:51:30;;;;;;;5.05;1.75;;;;;;;22.62;64.32;100125.84;;;;-52
2020/08/26 09:54:30;;;;;;;5.89;1.70;;;;;;;22.63;64.39;100134.42;;;;-60
2020/08/26 09:57:30;;;;;;;8.97;1.91;;;;;;;22.63;64.29;100117.91;;;;-59
2020/08/26 10:00:39;;;;;;;6.07;1.65;;;;;;;22.63;64.24;100131.63;;;;-58
2020/08/26 10:03:30;;;;;;;8.71;1.61;;;;;;;22.63;64.22;100141.76;;;;-59
2020/08/26 10:06:29;;;;;;;5.91;1.73;;;;;;;22.62;64.30;100135.49;;;;-50
2020/08/26 10:09:30;;;;;;;7.38;1.87;;;;;;;22.64;64.34;100142.23;;;;-50
2020/08/26 10:12:30;;;;;;;6.17;1.59;;;;;;;22.64;64.36;100136.13;;;;-51
2020/08/26 10:15:30;;;;;;;4.75;1.59;;;;;;;22.64;64.36;100122.70;;;;-52
2020/08/26 10:18:30;;;;;;;5.61;1.65;;;;;;;22.65;64.37;100127.27;;;;-58
2020/08/26 10:21:30;;;;;;;5.26;1.63;;;;;;;22.66;64.38;100128.09;;;;-49
2020/08/26 10:24:30;;;;;;;4.48;1.70;;;;;;;22.67;64.41;100134.45;;;;-45
2020/08/26 10:27:30;;;;;;;4.51;1.60;;;;;;;22.67;64.41;100116.73;;;;-47
2020/08/26 10:30:30;;;;;;;6.40;1.71;;;;;;;22.68;64.44;100109.91;;;;-50
2020/08/26 10:33:30;;;;;;;5.27;1.80;;;;;;;22.69;64.39;100127.14;;;;-49
2020/08/26 10:36:30;;;;;;;6.07;1.57;;;;;;;22.70;64.43;100107.86;;;;-50
2020/08/26 10:39:30;;;;;;;5.80;1.60;;;;;;;22.69;64.43;100104.27;;;;-46
2020/08/26 10:42:30;;;;;;;8.88;1.83;;;;;;;22.72;64.45;100110.12;;;;-48
2020/08/26 10:45:30;;;;;;;4.29;1.59;;;;;;;22.74;64.39;100100.78;;;;-59
2020/08/26 10:48:30;;;;;;;6.57;1.53;;;;;;;22.75;64.40;100098.00;;;;-54
2020/08/26 10:51:30;;;;;;;5.47;1.73;;;;;;;22.75;64.44;100098.00;;;;-57
2020/08/26 10:54:30;;;;;;;7.11;1.70;;;;;;;22.76;64.26;100103.36;;;;-56
2020/08/26 10:57:30;;;;;;;4.91;1.47;;;;;;;22.75;64.39;100103.81;;;;-55
2020/08/26 11:00:33;;;;;;;4.47;1.47;;;;;;;22.74;64.35;100115.90;;;;-55
2020/08/26 11:03:30;;;;;;;2.76;1.56;;;;;;;22.75;64.33;100114.59;;;;-60
2020/08/26 11:06:30;;;;;;;6.19;1.51;;;;;;;22.76;64.33;100105.33;;;;-54
2020/08/26 11:09:30;;;;;;;7.02;1.50;;;;;;;22.77;64.31;100119.30;;;;-55
2020/08/26 11:12:30;;;;;;;5.47;1.59;;;;;;;22.77;64.38;100122.88;;;;-54
2020/08/26 11:15:30;;;;;;;5.07;1.57;;;;;;;22.79;64.38;100121.97;;;;-60
2020/08/26 11:18:30;;;;;;;4.94;1.49;;;;;;;22.78;64.37;100130.53;;;;-56
2020/08/26 11:21:30;;;;;;;7.02;1.71;;;;;;;22.78;64.33;100138.38;;;;-57
2020/08/26 11:24:30;;;;;;;3.97;1.50;;;;;;;22.77;64.45;100143.88;;;;-57
2020/08/26 11:27:30;;;;;;;6.43;1.75;;;;;;;22.77;64.24;100139.80;;;;-58
2020/08/26 11:30:30;;;;;;;6.19;1.53;;;;;;;22.75;64.31;100144.72;;;;-49
2020/08/26 11:33:30;;;;;;;5.63;1.60;;;;;;;22.74;64.08;100146.52;;;;-48
2020/08/26 11:36:30;;;;;;;4.23;1.46;;;;;;;22.73;63.47;100145.73;;;;-49
2020/08/26 11:39:30;;;;;;;5.92;1.68;;;;;;;22.73;64.04;100147.84;;;;-49
2020/08/26 11:42:30;;;;;;;5.53;1.69;;;;;;;22.71;64.01;100133.98;;;;-49
2020/08/26 11:45:30;;;;;;;4.73;1.55;;;;;;;22.73;64.00;100137.98;;;;-49
2020/08/26 11:48:30;;;;;;;6.65;1.53;;;;;;;22.71;63.98;100147.88;;;;-57
2020/08/26 11:51:30;;;;;;;3.33;1.49;;;;;;;22.72;63.99;100145.97;;;;-56
2020/08/26 11:54:30;;;;;;;6.77;1.50;;;;;;;22.72;63.94;100139.52;;;;-49
2020/08/26 11:57:30;;;;;;;5.52;1.60;;;;;;;22.70;64.00;100138.83;;;;-51
2020/08/26 12:00:30;;;;;;;3.36;1.51;;;;;;;22.71;63.99;100136.28;;;;-57
2020/08/26 12:03:30;;;;;;;6.87;1.59;;;;;;;22.71;64.02;100139.88;;;;-57
2020/08/26 12:06:30;;;;;;;3.11;1.43;;;;;;;22.70;64.00;100137.03;;;;-57
2020/08/26 12:09:30;;;;;;;2.73;1.50;;;;;;;22.69;63.95;100136.70;;;;-57
2020/08/26 12:12:30;;;;;;;6.73;1.66;;;;;;;22.68;63.94;100132.80;;;;-57
2020/08/26 12:15:30;;;;;;;2.86;1.51;;;;;;;22.68;63.95;100132.80;;;;-58
2020/08/26 12:18:30;;;;;;;4.61;1.40;;;;;;;22.68;64.03;100133.88;;;;-51
2020/08/26 12:21:30;;;;;;;3.75;1.45;;;;;;;22.68;64.03;100133.86;;;;-58
2020/08/26 12:24:30;;;;;;;3.47;1.39;;;;;;;22.67;64.01;100126.68;;;;-54
2020/08/26 12:27:30;;;;;;;3.01;1.48;;;;;;;22.68;64.09;100131.26;;;;-56
2020/08/26 12:30:30;;;;;;;4.70;1.65;;;;;;;22.70;64.07;100129.77;;;;-57
2020/08/26 12:33:30;;;;;;;5.22;1.60;;;;;;;22.71;64.05;100124.36;;;;-51
2020/08/26 12:36:30;;;;;;;5.21;1.69;;;;;;;22.71;63.93;100127.86;;;;-53
2020/08/26 12:39:30;;;;;;;6.11;1.85;;;;;;;22.70;63.88;100129.02;;;;-58
2020/08/26 12:42:30;;;;;;;5.52;1.87;;;;;;;22.70;63.94;100126.08;;;;-54
2020/08/26 12:45:30;;;;;;;7.73;1.90;;;;;;;22.71;64.00;100133.00;;;;-51
2020/08/26 12:48:29;;;;;;;7.03;1.89;;;;;;;22.73;63.99;100137.48;;;;-55
2020/08/26 12:51:30;;;;;;;6.76;1.81;;;;;;;22.73;63.98;100129.71;;;;-55
2020/08/26 12:54:30;;;;;;;6.16;1.93;;;;;;;22.74;63.97;100135.83;;;;-55
2020/08/26 12:57:30;;;;;;;3.93;2.05;;;;;;;22.74;63.96;100137.78;;;;-54
2020/08/26 13:00:30;;;;;;;5.47;1.89;;;;;;;22.74;63.99;100150.70;;;;-55
2020/08/26 13:03:30;;;;;;;4.43;2.01;;;;;;;22.73;63.97;100134.94;;;;-54
2020/08/26 13:06:30;;;;;;;8.43;2.05;;;;;;;22.73;63.98;100144.66;;;;-56
2020/08/26 13:09:30;;;;;;;5.09;1.93;;;;;;;22.73;64.08;100139.36;;;;-52
2020/08/26 13:12:30;;;;;;;4.14;1.96;;;;;;;22.76;64.05;100152.95;;;;-51
2020/08/26 13:15:30;;;;;;;3.49;1.89;;;;;;;22.77;64.04;100148.87;;;;-57
2020/08/26 13:18:30;;;;;;;4.79;1.81;;;;;;;22.78;64.09;100143.95;;;;-53
2020/08/26 13:21:30;;;;;;;4.59;2.05;;;;;;;22.79;64.13;100175.64;;;;-53
2020/08/26 13:24:30;;;;;;;4.84;2.09;;;;;;;22.80;64.14;100163.84;;;;-60
2020/08/26 13:27:30;;;;;;;3.55;1.97;;;;;;;22.82;64.16;100174.69;;;;-54
2020/08/26 13:30:29;;;;;;;3.47;1.86;;;;;;;22.83;64.18;100179.52;;;;-54
2020/08/26 13:33:30;;;;;;;6.06;2.09;;;;;;;22.83;64.23;100176.75;;;;-54
2020/08/26 13:36:29;;;;;;;4.49;1.97;;;;;;;22.84;64.18;100164.30;;;;-56
2020/08/26 13:39:29;;;;;;;3.15;2.07;;;;;;;22.85;64.18;100176.06;;;;-53
2020/08/26 13:42:29;;;;;;;3.96;2.03;;;;;;;22.86;64.22;100181.02;;;;-56
2020/08/26 13:45:30;;;;;;;3.69;1.80;;;;;;;22.87;64.20;100197.03;;;;-49
2020/08/26 13:48:30;;;;;;;3.72;1.97;;;;;;;22.88;64.19;100198.23;;;;-55
2020/08/26 13:51:29;;;;;;;8.58;2.26;;;;;;;22.87;64.34;100193.02;;;;-50
2020/08/26 13:54:29;;;;;;;4.75;2.09;;;;;;;22.88;64.35;100203.13;;;;-50
2020/08/26 13:57:29;;;;;;;6.47;2.23;;;;;;;22.87;64.34;100201.36;;;;-50
2020/08/26 14:00:30;;;;;;;4.90;1.93;;;;;;;22.86;64.47;100178.89;;;;-50
2020/08/26 14:03:29;;;;;;;4.90;1.95;;;;;;;22.86;64.32;100205.61;;;;-48
2020/08/26 14:06:30;;;;;;;8.12;2.11;;;;;;;22.86;64.40;100210.69;;;;-58
2020/08/26 14:09:29;;;;;;;6.31;2.24;;;;;;;22.87;64.39;100203.01;;;;-58
2020/08/26 14:12:30;;;;;;;8.87;2.17;;;;;;;22.87;64.42;100211.89;;;;-56
2020/08/26 14:15:29;;;;;;;5.59;2.03;;;;;;;22.89;64.32;100201.41;;;;-53
2020/08/26 14:18:29;;;;;;;4.29;1.87;;;;;;;22.90;64.31;100196.82;;;;-51
2020/08/26 14:21:29;;;;;;;4.47;1.90;;;;;;;22.88;64.33;100205.02;;;;-52
2020/08/26 14:24:30;;;;;;;5.15;2.03;;;;;;;22.88;64.38;100199.05;;;;-52
2020/08/26 14:27:30;;;;;;;4.51;2.03;;;;;;;22.87;64.39;100206.11;;;;-52
2020/08/26 14:30:29;;;;;;;5.01;1.97;;;;;;;22.86;64.30;100215.41;;;;-51
2020/08/26 14:33:29;;;;;;;4.91;2.01;;;;;;;22.85;64.31;100205.63;;;;-50
2020/08/26 14:36:29;;;;;;;4.40;1.89;;;;;;;22.86;64.26;100208.65;;;;-50
2020/08/26 14:39:29;;;;;;;4.75;2.11;;;;;;;22.85;64.25;100213.00;;;;-52
2020/08/26 14:42:29;;;;;;;5.21;1.96;;;;;;;22.84;64.36;100211.44;;;;-50
2020/08/26 14:45:30;;;;;;;4.35;1.83;;;;;;;22.84;64.40;100214.39;;;;-47
2020/08/26 14:48:29;;;;;;;4.77;1.85;;;;;;;22.84;64.43;100237.49;;;;-48
2020/08/26 14:51:29;;;;;;;6.57;2.10;;;;;;;22.86;64.44;100211.66;;;;-55
2020/08/26 14:54:29;;;;;;;5.90;1.90;;;;;;;22.88;64.46;100223.57;;;;-51
2020/08/26 14:57:29;;;;;;;7.83;2.08;;;;;;;22.87;63.92;100224.56;;;;-52
2020/08/26 15:00:29;;;;;;;6.05;1.89;;;;;;;22.88;64.48;100223.81;;;;-51
2020/08/26 15:03:29;;;;;;;7.27;1.99;;;;;;;22.89;64.44;100237.55;;;;-52
2020/08/26 15:06:29;;;;;;;6.43;1.93;;;;;;;22.91;64.40;100241.04;;;;-54
2020/08/26 15:09:30;;;;;;;4.96;1.93;;;;;;;22.91;64.43;100244.55;;;;-57
2020/08/26 15:12:29;;;;;;;4.29;1.80;;;;;;;22.93;64.43;100252.67;;;;-49
2020/08/26 15:15:29;;;;;;;6.68;1.84;;;;;;;22.94;64.46;100253.75;;;;-55
2020/08/26 15:18:29;;;;;;;6.56;1.93;;;;;;;22.95;64.46;100252.58;;;;-54
2020/08/26 15:21:30;;;;;;;4.92;1.92;;;;;;;22.95;64.52;100249.81;;;;-57
2020/08/26 15:24:29;;;;;;;7.47;1.83;;;;;;;22.95;64.53;100261.16;;;;-50
2020/08/26 15:27:29;;;;;;;5.77;1.85;;;;;;;22.95;64.53;100262.89;;;;-52
2020/08/26 15:30:30;;;;;;;6.04;1.89;;;;;;;22.96;64.57;100263.44;;;;-50
2020/08/26 15:33:29;;;;;;;3.99;1.93;;;;;;;22.98;64.57;100254.44;;;;-51
2020/08/26 15:36:29;;;;;;;5.07;1.96;;;;;;;22.99;64.64;100271.82;;;;-53
2020/08/26 15:39:29;;;;;;;3.42;1.81;;;;;;;22.99;64.70;100274.20;;;;-60
2020/08/26 15:42:29;;;;;;;7.08;2.03;;;;;;;22.99;64.81;100277.04;;;;-57
2020/08/26 15:45:30;;;;;;;3.34;1.64;;;;;;;23.00;64.87;100275.32;;;;-57
2020/08/26 15:48:29;;;;;;;4.27;1.88;;;;;;;23.02;64.79;100277.31;;;;-56
2020/08/26 15:51:29;;;;;;;4.73;1.87;;;;;;;23.02;64.82;100273.80;;;;-58
2020/08/26 15:54:29;;;;;;;4.99;1.73;;;;;;;23.02;64.81;100279.67;;;;-56
2020/08/26 15:57:29;;;;;;;2.83;1.69;;;;;;;23.03;64.81;100277.45;;;;-59
2020/08/26 16:00:29;;;;;;;3.09;1.75;;;;;;;23.03;64.90;100280.62;;;;-55
2020/08/26 16:03:29;;;;;;;2.43;1.68;;;;;;;23.04;64.96;100279.58;;;;-59
2020/08/26 16:06:29;;;;;;;3.27;1.79;;;;;;;23.04;65.07;100277.62;;;;-52
2020/08/26 16:09:29;;;;;;;4.94;1.75;;;;;;;23.05;64.95;100278.91;;;;-49
2020/08/26 16:12:29;;;;;;;4.63;1.76;;;;;;;23.05;64.86;100286.32;;;;-56
2020/08/26 16:15:29;;;;;;;2.35;1.67;;;;;;;23.07;64.83;100288.84;;;;-57
2020/08/26 16:18:29;;;;;;;4.87;1.71;;;;;;;23.08;64.96;100292.28;;;;-57
2020/08/26 16:21:29;;;;;;;7.24;1.95;;;;;;;23.05;64.08;100290.08;;;;-56
2020/08/26 16:24:29;;;;;;;10.01;1.85;;;;;;;23.06;64.68;100295.66;;;;-51
2020/08/26 16:27:29;;;;;;;5.14;1.81;;;;;;;23.07;64.68;100298.24;;;;-54
2020/08/26 16:30:29;;;;;;;3.53;1.75;;;;;;;23.08;64.69;100301.43;;;;-50
2020/08/26 16:33:29;;;;;;;4.22;1.67;;;;;;;23.09;64.69;100304.27;;;;-50
2020/08/26 16:36:29;;;;;;;2.89;1.77;;;;;;;23.09;64.76;100306.72;;;;-52
2020/08/26 16:39:29;;;;;;;6.33;1.91;;;;;;;23.10;64.72;100305.98;;;;-48
2020/08/26 16:42:29;;;;;;;6.78;1.67;;;;;;;23.10;64.73;100302.56;;;;-47
2020/08/26 16:45:29;;;;;;;4.27;1.93;;;;;;;23.08;64.69;100306.57;;;;-51
2020/08/26 16:48:29;;;;;;;4.16;1.60;;;;;;;23.09;64.68;100305.02;;;;-51
2020/08/26 16:51:29;;;;;;;3.95;1.77;;;;;;;23.08;64.80;100311.56;;;;-53
2020/08/26 16:54:29;;;;;;;4.25;1.51;;;;;;;23.09;64.74;100304.20;;;;-49